Time;durP1;ratioP1;P1;durP2;ratioP2;P2;SDS_P1;SDS_P2;PMS_P1;PMS_P2;Temp;Humidity;BMP_temperature;BMP_pressure;BME280_temperature;BME280_humidity;BME280_pressure;Samples;Min_cycle;Max_cycle;Signal;HPM_P1;HPM_P2
2021/05/29 00:01:48;;;;;;;4.65;3.55;;;;;;;;;;4974815;28;20061;-82
2021/05/29 00:04:13;;;;;;;7.25;3.40;;;;;;;;;;4993713;28;20034;-82
2021/05/29 00:06:41;;;;;;;4.50;3.22;;;;;;;;;;4978505;28;20055;-82
2021/05/29 00:09:07;;;;;;;5.85;4.05;;;;;;;;;;4977973;28;20404;-82
2021/05/29 00:11:32;;;;;;;5.78;3.78;;;;;;;;;;4977978;28;20030;-81
2021/05/29 00:13:59;;;;;;;5.72;3.75;;;;;;;;;;4994010;28;20189;-81
2021/05/29 00:16:24;;;;;;;4.97;3.75;;;;;;;;;;4977998;28;20042;-81
2021/05/29 00:18:50;;;;;;;5.47;4.10;;;;;;;;;;4977330;28;20046;-82
2021/05/29 00:21:15;;;;;;;5.00;3.67;;;;;;;;;;4977424;28;20034;-83
2021/05/29 00:23:41;;;;;;;5.68;3.90;;;;;;;;;;4977734;28;20116;-82
2021/05/29 00:26:07;;;;;;;7.53;4.60;;;;;;;;;;4977330;28;20073;-82
2021/05/29 00:28:32;;;;;;;5.28;3.80;;;;;;;;;;4977462;28;20108;-82
2021/05/29 00:30:58;;;;;;;6.88;3.85;;;;;;;;;;4977478;28;20042;-82
2021/05/29 00:33:23;;;;;;;7.78;4.07;;;;;;;;;;4993399;28;20038;-82
2021/05/29 00:35:49;;;;;;;6.45;4.28;;;;;;;;;;4993861;28;20150;-82
2021/05/29 00:38:14;;;;;;;6.35;4.30;;;;;;;;;;4977458;28;20393;-81
2021/05/29 00:40:39;;;;;;;5.63;4.22;;;;;;;;;;4993554;28;20049;-82
2021/05/29 00:43:05;;;;;;;5.32;4.00;;;;;;;;;;4993453;28;20037;-82
2021/05/29 00:45:31;;;;;;;6.05;3.85;;;;;;;;;;4993094;28;20030;-82
2021/05/29 00:47:59;;;;;;;5.80;4.32;;;;;;;;;;4977180;28;20022;-82
2021/05/29 00:50:24;;;;;;;6.22;4.35;;;;;;;;;;5009400;28;20035;-82
2021/05/29 00:52:50;;;;;;;5.97;4.25;;;;;;;;;;5009638;28;20029;-82
2021/05/29 00:55:16;;;;;;;5.35;4.15;;;;;;;;;;5009479;28;20396;-82
2021/05/29 00:57:44;;;;;;;6.88;4.30;;;;;;;;;;5009654;28;20499;-82
2021/05/29 01:00:10;;;;;;;6.05;4.38;;;;;;;;;;4977224;28;20033;-82
2021/05/29 01:02:35;;;;;;;7.78;4.85;;;;;;;;;;4973482;28;20022;-82
2021/05/29 01:05:01;;;;;;;5.88;4.22;;;;;;;;;;4973709;28;20378;-82
2021/05/29 01:07:26;;;;;;;6.63;4.47;;;;;;;;;;4973796;28;20042;-82
2021/05/29 01:09:52;;;;;;;7.45;4.88;;;;;;;;;;4973719;28;20038;-82
2021/05/29 01:12:18;;;;;;;6.72;4.57;;;;;;;;;;4976232;28;20038;-82
2021/05/29 01:15:05;;;;;;;6.57;4.07;;;;;;;;;;4975682;28;20041;-82
2021/05/29 01:17:30;;;;;;;5.78;3.97;;;;;;;;;;4995832;28;20392;-82
2021/05/29 01:19:56;;;;;;;5.95;4.18;;;;;;;;;;4976279;28;20030;-83
2021/05/29 01:22:44;;;;;;;5.97;4.03;;;;;;;;;;4993010;28;20030;-82
2021/05/29 01:25:20;;;;;;;6.57;4.82;;;;;;;;;;4977032;28;20030;-82
2021/05/29 01:27:46;;;;;;;5.82;4.15;;;;;;;;;;4976364;28;20038;-82
2021/05/29 01:30:12;;;;;;;6.78;4.70;;;;;;;;;;4976239;28;20033;-82
2021/05/29 01:32:37;;;;;;;6.60;4.65;;;;;;;;;;4976402;28;20519;-83
2021/05/29 01:35:08;;;;;;;7.53;4.80;;;;;;;;;;4976496;28;20034;-82
2021/05/29 01:37:35;;;;;;;7.00;4.50;;;;;;;;;;4976687;28;20184;-82
2021/05/29 01:40:01;;;;;;;6.75;5.38;;;;;;;;;;4992768;28;20383;-82
2021/05/29 01:42:26;;;;;;;6.45;4.45;;;;;;;;;;4976069;28;20052;-82
2021/05/29 01:44:52;;;;;;;8.00;4.35;;;;;;;;;;4959644;28;20485;-82
2021/05/29 01:47:17;;;;;;;6.72;4.47;;;;;;;;;;4992532;28;20034;-82
2021/05/29 01:49:43;;;;;;;5.97;4.53;;;;;;;;;;4960295;28;20041;-82
2021/05/29 01:52:08;;;;;;;6.40;4.15;;;;;;;;;;4992171;28;20046;-82
2021/05/29 01:54:34;;;;;;;6.22;4.38;;;;;;;;;;4975763;28;20038;-82
2021/05/29 01:56:59;;;;;;;6.20;4.50;;;;;;;;;;4975740;28;20120;-82
2021/05/29 01:59:25;;;;;;;7.45;4.55;;;;;;;;;;4991395;28;20108;-82
2021/05/29 02:01:50;;;;;;;6.82;4.55;;;;;;;;;;4988600;28;20117;-82
2021/05/29 02:04:15;;;;;;;6.07;4.78;;;;;;;;;;4972480;28;20144;-82
2021/05/29 02:06:41;;;;;;;5.20;4.07;;;;;;;;;;4972655;28;20130;-82
2021/05/29 02:09:06;;;;;;;5.70;4.57;;;;;;;;;;4988872;28;20481;-82
2021/05/29 02:11:32;;;;;;;6.50;4.80;;;;;;;;;;4972342;28;20034;-82
2021/05/29 02:13:58;;;;;;;6.15;4.55;;;;;;;;;;4987990;28;20508;-83
2021/05/29 02:16:23;;;;;;;5.82;4.32;;;;;;;;;;4972413;28;20030;-82
2021/05/29 02:18:48;;;;;;;5.18;4.00;;;;;;;;;;4972421;28;20039;-81
2021/05/29 02:21:15;;;;;;;6.75;4.57;;;;;;;;;;4971878;28;20031;-81
2021/05/29 02:23:45;;;;;;;5.45;4.28;;;;;;;;;;4971965;28;20037;-82
2021/05/29 02:26:12;;;;;;;5.80;4.10;;;;;;;;;;4988082;28;20030;-82
2021/05/29 02:28:39;;;;;;;7.25;4.38;;;;;;;;;;4990901;28;20113;-82
2021/05/29 02:31:05;;;;;;;6.07;4.00;;;;;;;;;;4975436;28;20049;-83
2021/05/29 02:33:30;;;;;;;6.25;4.00;;;;;;;;;;4991340;28;20476;-82
2021/05/29 02:35:57;;;;;;;7.15;4.50;;;;;;;;;;4991827;28;20045;-82
2021/05/29 02:38:23;;;;;;;6.22;4.35;;;;;;;;;;4991336;28;20515;-82
2021/05/29 02:40:49;;;;;;;5.82;3.58;;;;;;;;;;4975235;28;20076;-82
2021/05/29 02:43:14;;;;;;;6.10;4.50;;;;;;;;;;5007819;28;20388;-82
2021/05/29 02:45:40;;;;;;;5.78;3.92;;;;;;;;;;5007634;28;20113;-82
2021/05/29 02:48:12;;;;;;;7.57;4.07;;;;;;;;;;5007689;28;20404;-83
2021/05/29 02:50:39;;;;;;;;;;;;;;;;;;4959732;28;20031;-82
2021/05/29 02:53:04;;;;;;;5.55;4.05;;;;;;;;;;4990931;28;19909;-82
2021/05/29 02:55:30;;;;;;;6.65;4.50;;;;;;;;;;4990452;28;20030;-82
2021/05/29 02:57:57;;;;;;;5.82;3.90;;;;;;;;;;5007287;28;20125;-82
2021/05/29 03:00:24;;;;;;;5.03;3.58;;;;;;;;;;4991026;28;20031;-82
2021/05/29 03:02:50;;;;;;;4.82;3.90;;;;;;;;;;5003930;28;20088;-82
2021/05/29 03:05:18;;;;;;;5.28;3.95;;;;;;;;;;4987807;28;20476;-82
2021/05/29 03:07:45;;;;;;;4.78;3.78;;;;;;;;;;5004170;28;20035;-83
2021/05/29 03:10:11;;;;;;;6.03;4.13;;;;;;;;;;4987418;28;20077;-82
2021/05/29 03:12:37;;;;;;;6.22;3.90;;;;;;;;;;4987590;28;20480;-82
2021/05/29 03:15:11;;;;;;;5.22;3.53;;;;;;;;;;4987579;28;20034;-82
2021/05/29 03:17:36;;;;;;;5.25;4.07;;;;;;;;;;4987994;28;20054;-82
2021/05/29 03:20:04;;;;;;;5.18;3.90;;;;;;;;;;5004265;28;20469;-83
2021/05/29 03:22:29;;;;;;;5.80;4.25;;;;;;;;;;4987666;28;20026;-83
2021/05/29 03:24:55;;;;;;;6.53;4.03;;;;;;;;;;5005357;28;20386;-82
2021/05/29 03:27:20;;;;;;;6.82;3.72;;;;;;;;;;4974484;28;20023;-82
2021/05/29 03:29:47;;;;;;;5.68;3.80;;;;;;;;;;4979935;28;20028;-82
2021/05/29 03:32:12;;;;;;;6.07;3.90;;;;;;;;;;4990820;28;20031;-82
2021/05/29 03:34:38;;;;;;;5.78;3.83;;;;;;;;;;4990850;28;20065;-82
2021/05/29 03:37:03;;;;;;;6.78;4.00;;;;;;;;;;4991811;28;20121;-82
2021/05/29 03:39:29;;;;;;;4.97;3.75;;;;;;;;;;4994692;28;20073;-82
2021/05/29 03:41:54;;;;;;;4.97;3.75;;;;;;;;;;5010555;28;20034;-82
2021/05/29 03:44:20;;;;;;;5.38;3.47;;;;;;;;;;5006897;28;20035;-82
2021/05/29 03:46:45;;;;;;;5.63;3.70;;;;;;;;;;4991546;28;20027;-82
2021/05/29 03:49:11;;;;;;;5.43;4.20;;;;;;;;;;5002259;28;20096;-82
2021/05/29 03:51:36;;;;;;;5.78;3.47;;;;;;;;;;4993968;28;20027;-82
2021/05/29 03:54:02;;;;;;;5.28;4.13;;;;;;;;;;4994481;28;20058;-82
2021/05/29 03:56:27;;;;;;;5.68;3.63;;;;;;;;;;4981339;28;20039;-82
2021/05/29 03:58:53;;;;;;;4.65;3.40;;;;;;;;;;4974923;28;20039;-83
2021/05/29 04:01:18;;;;;;;4.65;3.40;;;;;;;;;;4994558;28;20031;-82
2021/05/29 04:03:44;;;;;;;5.57;3.97;;;;;;;;;;4993949;28;20046;-83
2021/05/29 04:06:09;;;;;;;5.22;3.58;;;;;;;;;;4977930;28;20035;-82
2021/05/29 04:08:34;;;;;;;5.50;3.63;;;;;;;;;;4977972;28;20035;-82
2021/05/29 04:11:00;;;;;;;4.80;3.80;;;;;;;;;;4994058;28;20365;-82
2021/05/29 04:13:25;;;;;;;4.38;3.58;;;;;;;;;;4977881;28;20073;-81
2021/05/29 04:15:51;;;;;;;4.50;3.40;;;;;;;;;;5010560;28;20038;-82
2021/05/29 04:18:16;;;;;;;3.75;3.15;;;;;;;;;;5010607;28;20042;-82
2021/05/29 04:20:43;;;;;;;5.30;3.38;;;;;;;;;;4977251;28;20022;-82
2021/05/29 04:23:08;;;;;;;4.72;3.10;;;;;;;;;;4993592;28;20048;-83
2021/05/29 04:25:34;;;;;;;5.45;3.47;;;;;;;;;;4993608;28;20030;-83
2021/05/29 04:27:59;;;;;;;5.38;3.72;;;;;;;;;;5010196;28;20046;-82
2021/05/29 04:30:26;;;;;;;5.03;3.38;;;;;;;;;;5009941;28;20026;-82
2021/05/29 04:32:52;;;;;;;4.55;3.42;;;;;;;;;;5010223;28;20035;-82
2021/05/29 04:35:17;;;;;;;5.43;3.63;;;;;;;;;;5009843;28;20030;-82
2021/05/29 04:37:44;;;;;;;5.13;3.40;;;;;;;;;;4977234;28;20101;-82
2021/05/29 04:40:11;;;;;;;5.68;3.63;;;;;;;;;;5009880;28;20113;-82
2021/05/29 04:42:36;;;;;;;3.88;3.00;;;;;;;;;;5009561;28;20034;-82
2021/05/29 04:45:06;;;;;;;4.65;2.90;;;;;;;;;;5009870;28;20507;-82
2021/05/29 04:47:32;;;;;;;4.18;3.08;;;;;;;;;;5009049;28;20034;-83
2021/05/29 04:49:57;;;;;;;3.85;2.92;;;;;;;;;;5006449;28;20077;-82
2021/05/29 04:52:23;;;;;;;4.47;3.47;;;;;;;;;;5006063;28;20033;-82
2021/05/29 04:54:49;;;;;;;4.60;3.22;;;;;;;;;;4989835;28;20506;-82
2021/05/29 04:57:14;;;;;;;3.65;2.85;;;;;;;;;;5006296;28;20046;-82
2021/05/29 04:59:40;;;;;;;4.32;3.13;;;;;;;;;;5023029;28;20470;-82
2021/05/29 05:02:05;;;;;;;4.18;3.17;;;;;;;;;;5006385;28;20030;-81
2021/05/29 05:04:31;;;;;;;4.13;2.58;;;;;;;;;;4989814;28;20093;-82
2021/05/29 05:06:56;;;;;;;3.95;2.70;;;;;;;;;;4990037;28;20495;-82
2021/05/29 05:09:22;;;;;;;4.05;2.60;;;;;;;;;;4989510;28;20481;-81
2021/05/29 05:11:47;;;;;;;4.20;2.97;;;;;;;;;;4990252;28;20061;-85
2021/05/29 05:14:13;;;;;;;5.15;2.58;;;;;;;;;;4989503;28;20444;-79
2021/05/29 05:16:38;;;;;;;5.03;2.95;;;;;;;;;;4990038;28;20061;-80
2021/05/29 05:19:03;;;;;;;5.18;3.03;;;;;;;;;;5006235;28;20039;-79
2021/05/29 05:21:29;;;;;;;5.13;3.38;;;;;;;;;;5005841;28;20089;-79
2021/05/29 05:23:56;;;;;;;4.22;2.78;;;;;;;;;;4981572;28;20413;-78
2021/05/29 05:26:25;;;;;;;4.13;3.08;;;;;;;;;;5003765;28;20089;-79
2021/05/29 05:28:51;;;;;;;3.50;2.67;;;;;;;;;;4994277;28;20022;-79
2021/05/29 05:31:17;;;;;;;4.18;2.83;;;;;;;;;;5012021;28;20064;-79
2021/05/29 05:33:45;;;;;;;3.97;2.58;;;;;;;;;;4995848;28;20053;-79
2021/05/29 05:36:11;;;;;;;4.65;2.53;;;;;;;;;;4996034;28;20048;-78
2021/05/29 05:38:37;;;;;;;5.03;2.58;;;;;;;;;;4992306;28;20045;-79
2021/05/29 05:41:04;;;;;;;5.82;2.47;;;;;;;;;;4969313;28;20023;-81
2021/05/29 05:43:38;;;;;;;4.57;2.78;;;;;;;;;;4975015;28;20466;-80
2021/05/29 05:46:05;;;;;;;5.72;3.10;;;;;;;;;;5002646;28;20030;-80
2021/05/29 05:48:34;;;;;;;5.40;2.92;;;;;;;;;;4974936;28;20034;-80
2021/05/29 05:51:00;;;;;;;4.32;2.88;;;;;;;;;;5006261;28;20038;-79
2021/05/29 05:53:27;;;;;;;3.75;2.63;;;;;;;;;;5008553;28;20039;-82
2021/05/29 05:55:58;;;;;;;4.95;2.90;;;;;;;;;;5008516;28;20037;-80
2021/05/29 05:58:23;;;;;;;3.90;2.90;;;;;;;;;;4992224;28;20037;-79
2021/05/29 06:00:49;;;;;;;5.15;2.78;;;;;;;;;;4991286;28;20030;-79
2021/05/29 06:03:14;;;;;;;2.70;2.15;;;;;;;;;;4991917;28;20112;-80
2021/05/29 06:05:39;;;;;;;4.75;2.35;;;;;;;;;;5005796;28;20378;-80
2021/05/29 06:08:05;;;;;;;3.80;2.58;;;;;;;;;;4976987;28;20046;-78
2021/05/29 06:10:33;;;;;;;3.35;2.50;;;;;;;;;;5009197;28;20105;-80
2021/05/29 06:13:02;;;;;;;4.10;3.03;;;;;;;;;;4956891;28;20458;-80
2021/05/29 06:20:49;;;;;;;3.80;2.20;;;;;;;;;;4986956;28;20023;-78
2021/05/29 06:23:14;;;;;;;4.25;2.65;;;;;;;;;;4971252;28;20210;-78
2021/05/29 06:25:40;;;;;;;3.97;2.35;;;;;;;;;;4972438;28;20497;-79
2021/05/29 06:28:06;;;;;;;4.18;2.45;;;;;;;;;;4971957;28;20075;-79
2021/05/29 06:30:32;;;;;;;4.95;2.53;;;;;;;;;;4989738;28;20043;-78
2021/05/29 06:32:57;;;;;;;3.58;2.55;;;;;;;;;;4991385;28;20026;-79
2021/05/29 06:35:23;;;;;;;4.70;2.67;;;;;;;;;;4991061;28;20053;-78
2021/05/29 06:37:48;;;;;;;5.18;3.00;;;;;;;;;;4991630;28;20120;-78
2021/05/29 06:40:14;;;;;;;5.40;3.03;;;;;;;;;;4990467;28;20034;-79
2021/05/29 06:42:39;;;;;;;4.78;2.53;;;;;;;;;;4994136;28;20022;-78
2021/05/29 06:45:07;;;;;;;5.47;2.38;;;;;;;;;;4991263;28;20118;-78
2021/05/29 06:47:34;;;;;;;5.22;2.78;;;;;;;;;;5006625;28;20026;-78
2021/05/29 06:50:00;;;;;;;4.93;2.80;;;;;;;;;;4990891;28;20027;-78
2021/05/29 06:52:28;;;;;;;6.68;2.78;;;;;;;;;;4991119;28;20085;-78
2021/05/29 07:00:16;;;;;;;4.47;2.83;;;;;;;;;;4990834;28;20022;-78
2021/05/29 07:02:41;;;;;;;4.35;2.72;;;;;;;;;;4981082;28;20076;-78
2021/05/29 07:05:09;;;;;;;5.03;3.08;;;;;;;;;;4980430;28;20038;-78
2021/05/29 07:07:35;;;;;;;5.93;2.75;;;;;;;;;;5023052;28;20767;-78
2021/05/29 07:10:03;;;;;;;4.15;2.75;;;;;;;;;;4988330;28;20039;-84
2021/05/29 07:12:31;;;;;;;4.45;2.85;;;;;;;;;;4959614;28;20027;-85
2021/05/29 07:14:59;;;;;;;4.70;3.20;;;;;;;;;;4960100;28;20122;-86
2021/05/29 07:17:33;;;;;;;4.65;2.85;;;;;;;;;;4992497;28;20034;-82
2021/05/29 07:19:59;;;;;;;5.38;3.40;;;;;;;;;;4975176;28;20062;-86
2021/05/29 07:22:26;;;;;;;5.78;3.75;;;;;;;;;;4982704;28;20027;-85
2021/05/29 07:24:52;;;;;;;7.72;4.40;;;;;;;;;;4992826;28;20129;-86
2021/05/29 07:27:17;;;;;;;7.13;4.60;;;;;;;;;;4992739;28;20037;-86
2021/05/29 07:29:46;;;;;;;7.47;3.92;;;;;;;;;;4960351;28;20039;-86
2021/05/29 07:32:14;;;;;;;4.75;3.63;;;;;;;;;;4960167;28;20030;-86
2021/05/29 07:34:40;;;;;;;5.63;3.85;;;;;;;;;;4976739;28;20035;-87
2021/05/29 07:37:07;;;;;;;7.78;4.68;;;;;;;;;;4959172;28;20385;-76
2021/05/29 07:39:33;;;;;;;11.93;5.78;;;;;;;;;;4975591;28;20046;-77
2021/05/29 07:41:58;;;;;;;13.45;7.90;;;;;;;;;;5027341;28;20102;-78
2021/05/29 07:44:26;;;;;;;28.08;20.77;;;;;;;;;;4994149;28;20034;-78
2021/05/29 07:46:51;;;;;;;15.07;11.45;;;;;;;;;;4993325;28;20373;-77
2021/05/29 07:49:17;;;;;;;12.00;8.25;;;;;;;;;;4994382;28;20065;-77
2021/05/29 07:51:42;;;;;;;7.72;5.78;;;;;;;;;;4994016;28;20030;-79
2021/05/29 07:54:09;;;;;;;7.03;4.40;;;;;;;;;;5010698;28;20027;-79
2021/05/29 07:56:34;;;;;;;6.20;3.90;;;;;;;;;;4994240;28;20097;-79
2021/05/29 07:59:06;;;;;;;4.95;2.60;;;;;;;;;;4997519;28;20033;-79
2021/05/29 08:01:32;;;;;;;6.03;2.40;;;;;;;;;;5007326;28;20029;-79
2021/05/29 08:03:58;;;;;;;4.97;2.00;;;;;;;;;;5012738;28;20116;-79
2021/05/29 08:06:25;;;;;;;4.72;2.30;;;;;;;;;;4991688;28;20030;-80
2021/05/29 08:08:51;;;;;;;5.10;1.92;;;;;;;;;;4993846;28;20038;-79
2021/05/29 08:11:22;;;;;;;3.47;2.00;;;;;;;;;;4993614;28;20030;-79
2021/05/29 08:13:48;;;;;;;5.97;3.17;;;;;;;;;;4993913;28;20042;-79
2021/05/29 08:16:14;;;;;;;5.57;2.90;;;;;;;;;;4993501;28;20034;-79
2021/05/29 08:18:40;;;;;;;5.40;2.83;;;;;;;;;;4993832;28;20034;-79
2021/05/29 08:21:05;;;;;;;5.40;2.47;;;;;;;;;;5026066;28;20030;-79
2021/05/29 08:23:31;;;;;;;4.05;2.03;;;;;;;;;;4992910;28;20046;-78
2021/05/29 08:25:56;;;;;;;3.63;2.15;;;;;;;;;;4993968;28;20432;-78
2021/05/29 08:28:22;;;;;;;5.28;2.17;;;;;;;;;;5010201;28;20038;-78
2021/05/29 08:30:47;;;;;;;6.38;1.75;;;;;;;;;;4993582;28;20061;-79
2021/05/29 08:33:13;;;;;;;8.35;2.10;;;;;;;;;;5009715;28;20045;-79
2021/05/29 08:35:38;;;;;;;2.72;1.30;;;;;;;;;;4977564;28;20034;-79
2021/05/29 08:38:04;;;;;;;4.35;1.88;;;;;;;;;;4989932;28;20061;-79
2021/05/29 08:40:29;;;;;;;4.90;1.85;;;;;;;;;;4989992;28;20045;-78
2021/05/29 08:42:55;;;;;;;2.70;1.65;;;;;;;;;;5008742;28;20034;-79
2021/05/29 08:45:20;;;;;;;6.60;2.30;;;;;;;;;;5025270;28;20034;-79
2021/05/29 08:47:47;;;;;;;6.00;1.77;;;;;;;;;;4992736;28;20038;-79
2021/05/29 08:50:12;;;;;;;5.65;1.60;;;;;;;;;;4977536;28;20031;-79
2021/05/29 08:52:39;;;;;;;4.38;2.15;;;;;;;;;;4976979;28;20053;-79
2021/05/29 08:55:07;;;;;;;5.38;1.88;;;;;;;;;;4993416;28;20039;-79
2021/05/29 08:57:33;;;;;;;5.40;1.95;;;;;;;;;;4993313;28;20026;-79
2021/05/29 08:59:59;;;;;;;2.55;1.48;;;;;;;;;;5008723;28;20113;-79
2021/05/29 09:02:26;;;;;;;3.45;1.92;;;;;;;;;;5001658;28;20038;-79
2021/05/29 09:05:05;;;;;;;3.83;1.50;;;;;;;;;;4992976;28;20484;-78
2021/05/29 09:07:31;;;;;;;6.43;1.92;;;;;;;;;;4992541;28;20038;-78
2021/05/29 09:10:20;;;;;;;2.42;1.38;;;;;;;;;;4993227;28;20072;-79
2021/05/29 09:13:19;;;;;;;3.83;1.70;;;;;;;;;;4999322;28;20109;-79
2021/05/29 09:15:46;;;;;;;4.88;2.15;;;;;;;;;;4967275;28;20046;-78
2021/05/29 09:18:36;;;;;;;7.90;4.57;;;;;;;;;;4965731;28;20396;-79
2021/05/29 09:21:27;;;;;;;10.05;7.07;;;;;;;;;;4992117;28;20081;-79
2021/05/29 09:23:57;;;;;;;12.02;8.63;;;;;;;;;;5021955;28;20034;-79
2021/05/29 09:26:43;;;;;;;6.18;3.33;;;;;;;;;;5012998;28;20034;-78
2021/05/29 09:29:22;;;;;;;4.50;2.42;;;;;;;;;;5011941;28;20041;-79
2021/05/29 09:32:02;;;;;;;2.72;1.70;;;;;;;;;;4989214;28;20039;-79
2021/05/29 09:35:00;;;;;;;3.15;2.13;;;;;;;;;;4988236;28;20054;-79
2021/05/29 09:37:27;;;;;;;2.63;1.48;;;;;;;;;;4972857;28;20050;-78
2021/05/29 09:40:05;;;;;;;3.13;2.00;;;;;;;;;;4973539;28;20035;-78
2021/05/29 09:42:36;;;;;;;2.92;2.15;;;;;;;;;;4989444;28;20038;-79
2021/05/29 09:45:18;;;;;;;4.33;1.93;;;;;;;;;;4992224;28;20108;-79
2021/05/29 09:47:46;;;;;;;2.72;1.65;;;;;;;;;;4992028;28;20570;-80
2021/05/29 09:50:11;;;;;;;2.65;1.50;;;;;;;;;;4992085;28;20085;-79
2021/05/29 09:52:38;;;;;;;3.53;1.38;;;;;;;;;;4992248;28;20076;-80
2021/05/29 09:55:06;;;;;;;3.15;1.48;;;;;;;;;;4972410;28;20076;-80
2021/05/29 09:57:31;;;;;;;4.25;1.33;;;;;;;;;;5004370;28;20488;-79
2021/05/29 09:59:58;;;;;;;5.35;1.48;;;;;;;;;;4994567;28;20056;-79
2021/05/29 10:02:23;;;;;;;2.65;1.20;;;;;;;;;;5004468;28;20037;-79
2021/05/29 10:04:54;;;;;;;4.43;1.92;;;;;;;;;;4995392;28;20041;-79
2021/05/29 10:07:20;;;;;;;3.90;1.45;;;;;;;;;;5012150;28;20052;-79
2021/05/29 10:09:45;;;;;;;3.45;1.60;;;;;;;;;;4995221;28;20034;-79
2021/05/29 10:12:11;;;;;;;2.28;1.23;;;;;;;;;;5011203;28;20022;-78
2021/05/29 10:14:36;;;;;;;3.67;1.20;;;;;;;;;;5011110;28;20041;-79
2021/05/29 10:17:04;;;;;;;2.75;1.20;;;;;;;;;;4995212;28;20056;-79
2021/05/29 10:19:29;;;;;;;2.63;0.95;;;;;;;;;;5011524;28;20052;-79
2021/05/29 10:21:55;;;;;;;3.47;1.98;;;;;;;;;;4994587;28;20034;-79
2021/05/29 10:24:21;;;;;;;2.55;1.10;;;;;;;;;;4994795;28;20034;-79
2021/05/29 10:26:48;;;;;;;3.03;1.27;;;;;;;;;;5011239;28;20476;-78
2021/05/29 10:29:13;;;;;;;2.42;1.02;;;;;;;;;;5011153;28;20042;-78
2021/05/29 10:31:39;;;;;;;3.30;0.95;;;;;;;;;;4999901;28;20448;-79
2021/05/29 10:34:06;;;;;;;2.10;0.82;;;;;;;;;;4991374;28;20034;-79
2021/05/29 10:36:54;;;;;;;2.30;0.73;;;;;;;;;;4991360;28;20503;-79
2021/05/29 10:39:24;;;;;;;2.47;0.88;;;;;;;;;;4991410;28;20041;-79
2021/05/29 10:41:59;;;;;;;3.22;1.25;;;;;;;;;;5007662;28;20045;-79
2021/05/29 10:44:35;;;;;;;2.55;0.85;;;;;;;;;;4990702;28;20080;-79
2021/05/29 10:47:19;;;;;;;1.92;0.90;;;;;;;;;;5007496;28;20038;-79
2021/05/29 10:49:51;;;;;;;1.98;0.95;;;;;;;;;;5008094;28;20107;-78
2021/05/29 10:52:36;;;;;;;2.00;0.88;;;;;;;;;;4992250;28;20042;-79
2021/05/29 10:55:13;;;;;;;2.30;1.00;;;;;;;;;;4991463;28;20035;-79
2021/05/29 10:58:00;;;;;;;1.70;0.80;;;;;;;;;;4991378;28;20046;-79
2021/05/29 11:00:35;;;;;;;4.15;1.20;;;;;;;;;;4970378;28;20030;-79
2021/05/29 11:03:15;;;;;;;3.65;1.30;;;;;;;;;;5023679;28;20033;-79
2021/05/29 11:05:41;;;;;;;2.17;0.93;;;;;;;;;;5011130;28;20436;-79
2021/05/29 11:08:49;;;;;;;2.20;1.08;;;;;;;;;;4994466;28;20116;-79
2021/05/29 11:11:41;;;;;;;3.10;1.13;;;;;;;;;;4996863;28;20566;-79
2021/05/29 11:14:17;;;;;;;6.40;1.88;;;;;;;;;;5010620;28;20030;-79
2021/05/29 11:17:05;;;;;;;3.53;0.90;;;;;;;;;;4995929;28;20113;-79
2021/05/29 11:19:35;;;;;;;2.85;1.52;;;;;;;;;;4995821;28;20125;-79
2021/05/29 11:22:07;;;;;;;2.65;0.77;;;;;;;;;;4974142;28;20053;-79
2021/05/29 11:24:42;;;;;;;2.65;1.10;;;;;;;;;;4990632;28;20440;-79
2021/05/29 11:27:08;;;;;;;1.90;1.10;;;;;;;;;;4975290;28;20113;-79
2021/05/29 11:29:53;;;;;;;2.30;1.02;;;;;;;;;;4956911;28;20054;-79
2021/05/29 11:32:41;;;;;;;3.92;0.95;;;;;;;;;;5002872;28;20054;-79
2021/05/29 11:35:06;;;;;;;1.30;0.85;;;;;;;;;;5006776;28;20116;-80
2021/05/29 11:37:32;;;;;;;2.45;1.40;;;;;;;;;;4989761;28;20129;-80
2021/05/29 11:39:57;;;;;;;2.53;1.30;;;;;;;;;;4989618;28;20495;-81
2021/05/29 11:42:22;;;;;;;5.30;1.50;;;;;;;;;;4979801;28;20538;-83
2021/05/29 11:44:48;;;;;;;3.63;1.10;;;;;;;;;;4991506;28;20034;-86
2021/05/29 11:47:17;;;;;;;2.05;0.82;;;;;;;;;;4978080;28;20404;-85
2021/05/29 11:49:42;;;;;;;2.35;0.88;;;;;;;;;;4961112;28;20432;-86
2021/05/29 11:52:08;;;;;;;1.58;0.80;;;;;;;;;;5004057;28;20039;-86
2021/05/29 11:54:35;;;;;;;2.22;0.95;;;;;;;;;;5006949;28;20030;-86
2021/05/29 11:57:01;;;;;;;3.67;1.13;;;;;;;;;;4991278;28;20121;-84
2021/05/29 11:59:26;;;;;;;3.42;1.20;;;;;;;;;;5007172;28;20120;-84
2021/05/29 12:01:54;;;;;;;2.72;1.23;;;;;;;;;;4969764;28;20074;-83
2021/05/29 12:04:24;;;;;;;5.00;1.50;;;;;;;;;;4974510;28;20053;-82
2021/05/29 12:06:57;;;;;;;2.20;1.30;;;;;;;;;;4974928;28;20067;-83
2021/05/29 12:09:24;;;;;;;2.50;1.20;;;;;;;;;;4978337;28;20408;-83
2021/05/29 12:11:52;;;;;;;2.92;1.20;;;;;;;;;;4994412;28;20038;-83
2021/05/29 12:14:34;;;;;;;2.25;1.23;;;;;;;;;;5009442;28;20121;-83
2021/05/29 12:17:06;;;;;;;4.03;1.33;;;;;;;;;;4978808;28;20050;-83
2021/05/29 12:19:41;;;;;;;3.58;1.42;;;;;;;;;;4978606;28;20022;-84
2021/05/29 12:22:17;;;;;;;3.05;1.25;;;;;;;;;;5009960;28;20034;-83
2021/05/29 12:24:43;;;;;;;2.55;1.50;;;;;;;;;;4977961;28;20042;-82
2021/05/29 12:27:11;;;;;;;3.65;1.23;;;;;;;;;;4993758;28;20034;-82
2021/05/29 12:29:37;;;;;;;2.72;1.45;;;;;;;;;;4977219;28;20030;-82
2021/05/29 12:32:02;;;;;;;2.72;1.42;;;;;;;;;;4977556;28;20117;-81
2021/05/29 12:34:29;;;;;;;3.88;1.40;;;;;;;;;;4993385;28;20093;-82
2021/05/29 12:37:09;;;;;;;3.97;1.75;;;;;;;;;;4992787;28;20052;-82
2021/05/29 12:39:52;;;;;;;3.70;1.98;;;;;;;;;;4993253;28;20076;-82
2021/05/29 12:42:22;;;;;;;2.20;1.50;;;;;;;;;;5016248;28;20369;-83
2021/05/29 12:44:48;;;;;;;3.13;1.42;;;;;;;;;;4993628;28;20117;-82
2021/05/29 12:47:27;;;;;;;3.17;1.65;;;;;;;;;;4993169;28;20045;-81
2021/05/29 12:49:53;;;;;;;3.78;1.63;;;;;;;;;;4993221;28;20026;-83
2021/05/29 12:52:33;;;;;;;5.50;1.75;;;;;;;;;;4992832;28;20065;-82
2021/05/29 12:54:58;;;;;;;5.80;1.85;;;;;;;;;;4994841;28;20088;-82
2021/05/29 12:57:34;;;;;;;3.72;1.75;;;;;;;;;;5009467;28;20436;-83
2021/05/29 13:00:14;;;;;;;2.90;1.38;;;;;;;;;;4992873;28;20039;-81
2021/05/29 13:07:24;;;;;;;3.33;1.50;;;;;;;;;;4973667;28;20050;-82
2021/05/29 13:08:52;;;;;;;2.92;1.50;;;;;;;;;;4978615;28;20042;-82
2021/05/29 13:11:28;;;;;;;3.03;1.52;;;;;;;;;;5006320;28;20027;-81
2021/05/29 13:14:06;;;;;;;;;;;;;;;;;;4993200;28;20085;-81
2021/05/29 13:16:50;;;;;;;2.45;1.30;;;;;;;;;;5008350;28;19910;-82
2021/05/29 13:19:15;;;;;;;3.45;1.70;;;;;;;;;;5006203;28;20461;-81
2021/05/29 13:22:05;;;;;;;4.43;1.50;;;;;;;;;;4972996;28;20030;-81
2021/05/29 13:25:00;;;;;;;3.20;1.88;;;;;;;;;;4954541;28;20035;-81
2021/05/29 13:27:25;;;;;;;2.35;1.48;;;;;;;;;;4972646;28;20118;-82
2021/05/29 13:29:51;;;;;;;3.25;1.60;;;;;;;;;;4994648;28;20062;-81
2021/05/29 13:32:19;;;;;;;3.28;1.10;;;;;;;;;;4992742;28;20038;-81
2021/05/29 13:34:45;;;;;;;2.83;0.98;;;;;;;;;;4992137;28;20030;-81
2021/05/29 13:37:11;;;;;;;3.78;1.20;;;;;;;;;;5008713;28;20026;-80
2021/05/29 13:39:36;;;;;;;3.65;1.45;;;;;;;;;;4992312;28;20546;-80
2021/05/29 13:42:03;;;;;;;4.43;1.30;;;;;;;;;;4976111;28;20037;-80
2021/05/29 13:44:28;;;;;;;3.38;1.17;;;;;;;;;;4992153;28;20393;-80
2021/05/29 13:46:54;;;;;;;3.00;0.80;;;;;;;;;;4992533;28;20045;-80
2021/05/29 13:49:19;;;;;;;3.63;2.38;;;;;;;;;;4989222;28;20117;-82
2021/05/29 13:51:46;;;;;;;2.63;1.48;;;;;;;;;;5024183;28;20038;-80
2021/05/29 13:54:12;;;;;;;2.63;1.40;;;;;;;;;;4992198;28;20073;-81
2021/05/29 13:56:37;;;;;;;2.22;1.25;;;;;;;;;;5008140;28;20499;-82
2021/05/29 13:59:03;;;;;;;2.65;1.20;;;;;;;;;;5008422;28;20113;-82
2021/05/29 14:01:29;;;;;;;3.95;1.05;;;;;;;;;;4986381;28;20258;-82
2021/05/29 14:03:54;;;;;;;2.95;1.15;;;;;;;;;;4991704;28;20076;-82
2021/05/29 14:06:20;;;;;;;1.48;0.80;;;;;;;;;;4991763;28;20045;-82
2021/05/29 14:08:45;;;;;;;3.70;2.10;;;;;;;;;;4975971;28;20038;-82
2021/05/29 14:11:20;;;;;;;1.90;1.17;;;;;;;;;;4988147;28;20042;-82
2021/05/29 14:13:45;;;;;;;2.60;1.45;;;;;;;;;;4987365;28;20031;-81
2021/05/29 14:16:11;;;;;;;2.33;1.30;;;;;;;;;;5004973;28;20499;-82
2021/05/29 14:18:36;;;;;;;2.15;1.02;;;;;;;;;;5005002;28;20489;-82
2021/05/29 14:21:02;;;;;;;1.40;0.82;;;;;;;;;;4987554;28;20098;-82
2021/05/29 14:23:28;;;;;;;2.00;1.05;;;;;;;;;;4988413;28;20106;-81
2021/05/29 14:25:53;;;;;;;2.58;0.95;;;;;;;;;;5005344;28;20118;-82
2021/05/29 14:28:19;;;;;;;2.42;1.17;;;;;;;;;;4995930;28;20043;-82
2021/05/29 14:30:44;;;;;;;2.88;0.93;;;;;;;;;;4984592;28;20074;-81
2021/05/29 14:33:10;;;;;;;2.20;0.73;;;;;;;;;;5007123;28;20064;-82
2021/05/29 14:35:35;;;;;;;5.07;1.00;;;;;;;;;;5006685;28;20491;-82
2021/05/29 14:38:01;;;;;;;1.67;1.23;;;;;;;;;;5004006;28;20169;-84
2021/05/29 14:40:26;;;;;;;2.50;1.10;;;;;;;;;;4990599;28;20040;-81
2021/05/29 14:42:51;;;;;;;4.45;0.85;;;;;;;;;;4991092;28;20034;-79
2021/05/29 14:45:17;;;;;;;2.67;1.38;;;;;;;;;;4990624;28;20477;-79
2021/05/29 14:47:42;;;;;;;3.58;1.10;;;;;;;;;;4991368;28;20088;-80
2021/05/29 14:50:08;;;;;;;2.15;1.08;;;;;;;;;;4991285;28;20034;-79
2021/05/29 14:52:34;;;;;;;3.30;1.20;;;;;;;;;;4974847;28;20147;-79
2021/05/29 14:54:59;;;;;;;3.10;0.90;;;;;;;;;;4991276;28;20527;-80
2021/05/29 14:57:27;;;;;;;2.15;0.95;;;;;;;;;;4975234;28;20057;-79
2021/05/29 14:59:52;;;;;;;1.98;0.90;;;;;;;;;;4974658;28;20035;-80
2021/05/29 15:02:19;;;;;;;5.15;0.93;;;;;;;;;;4970839;28;20026;-79
2021/05/29 15:04:58;;;;;;;3.58;1.00;;;;;;;;;;5021218;28;20125;-80